sensor_id;sensor_type;location;lat;lon;timestamp;P1;durP1;ratioP1;P2;durP2;ratioP2
37909;SDS011;23741;49.446;8.754;2023-07-28T00:01:00;3.63;;;2.30;;
37909;SDS011;23741;49.446;8.754;2023-07-28T00:03:02;1.95;;;1.58;;
37909;SDS011;23741;49.446;8.754;2023-07-28T00:05:04;3.47;;;2.08;;
37909;SDS011;23741;49.446;8.754;2023-07-28T00:07:06;2.33;;;1.80;;
37909;SDS011;23741;49.446;8.754;2023-07-28T00:09:08;1.90;;;1.63;;
37909;SDS011;23741;49.446;8.754;2023-07-28T00:11:10;1.77;;;1.55;;
37909;SDS011;23741;49.446;8.754;2023-07-28T00:13:13;2.60;;;1.60;;
37909;SDS011;23741;49.446;8.754;2023-07-28T00:15:15;3.00;;;1.67;;
37909;SDS011;23741;49.446;8.754;2023-07-28T00:17:17;5.25;;;2.05;;
37909;SDS011;23741;49.446;8.754;2023-07-28T00:19:19;2.78;;;1.90;;
37909;SDS011;23741;49.446;8.754;2023-07-28T00:21:22;2.25;;;1.80;;
37909;SDS011;23741;49.446;8.754;2023-07-28T00:23:24;2.10;;;1.80;;
37909;SDS011;23741;49.446;8.754;2023-07-28T00:25:26;5.43;;;1.98;;
37909;SDS011;23741;49.446;8.754;2023-07-28T00:27:27;2.25;;;1.77;;
37909;SDS011;23741;49.446;8.754;2023-07-28T00:29:29;2.35;;;1.83;;
37909;SDS011;23741;49.446;8.754;2023-07-28T00:31:31;2.28;;;1.67;;
37909;SDS011;23741;49.446;8.754;2023-07-28T00:33:34;3.08;;;1.98;;
37909;SDS011;23741;49.446;8.754;2023-07-28T00:35:37;2.85;;;1.75;;
37909;SDS011;23741;49.446;8.754;2023-07-28T00:37:39;2.20;;;1.73;;
37909;SDS011;23741;49.446;8.754;2023-07-28T00:39:41;1.92;;;1.73;;
37909;SDS011;23741;49.446;8.754;2023-07-28T00:41:43;1.55;;;1.45;;
37909;SDS011;23741;49.446;8.754;2023-07-28T00:43:44;2.45;;;1.83;;
37909;SDS011;23741;49.446;8.754;2023-07-28T00:45:46;1.95;;;1.70;;
37909;SDS011;23741;49.446;8.754;2023-07-28T00:49:51;1.73;;;1.35;;
37909;SDS011;23741;49.446;8.754;2023-07-28T00:51:53;1.50;;;1.40;;
37909;SDS011;23741;49.446;8.754;2023-07-28T00:53:56;3.65;;;1.65;;
37909;SDS011;23741;49.446;8.754;2023-07-28T00:55:58;5.53;;;1.77;;
37909;SDS011;23741;49.446;8.754;2023-07-28T00:58:00;2.83;;;1.53;;
37909;SDS011;23741;49.446;8.754;2023-07-28T01:00:02;1.77;;;1.45;;
37909;SDS011;23741;49.446;8.754;2023-07-28T01:02:04;2.28;;;1.70;;
37909;SDS011;23741;49.446;8.754;2023-07-28T01:04:06;1.92;;;1.60;;
37909;SDS011;23741;49.446;8.754;2023-07-28T01:06:10;2.97;;;1.83;;
37909;SDS011;23741;49.446;8.754;2023-07-28T01:08:38;2.05;;;1.55;;
37909;SDS011;23741;49.446;8.754;2023-07-28T01:10:47;2.08;;;1.83;;
37909;SDS011;23741;49.446;8.754;2023-07-28T01:12:49;3.35;;;1.65;;
37909;SDS011;23741;49.446;8.754;2023-07-28T01:14:50;1.98;;;1.60;;
37909;SDS011;23741;49.446;8.754;2023-07-28T01:16:52;3.08;;;1.90;;
37909;SDS011;23741;49.446;8.754;2023-07-28T01:18:54;3.00;;;1.40;;
37909;SDS011;23741;49.446;8.754;2023-07-28T01:20:57;3.13;;;1.85;;
37909;SDS011;23741;49.446;8.754;2023-07-28T01:23:17;2.17;;;1.63;;
37909;SDS011;23741;49.446;8.754;2023-07-28T01:27:30;2.58;;;1.73;;
37909;SDS011;23741;49.446;8.754;2023-07-28T01:29:32;1.95;;;1.73;;
37909;SDS011;23741;49.446;8.754;2023-07-28T01:31:35;3.95;;;1.77;;
37909;SDS011;23741;49.446;8.754;2023-07-28T01:33:37;2.53;;;1.52;;
37909;SDS011;23741;49.446;8.754;2023-07-28T01:35:39;2.22;;;1.70;;
37909;SDS011;23741;49.446;8.754;2023-07-28T01:37:41;3.92;;;2.05;;
37909;SDS011;23741;49.446;8.754;2023-07-28T01:39:43;5.28;;;2.35;;
37909;SDS011;23741;49.446;8.754;2023-07-28T01:41:44;1.73;;;1.60;;
37909;SDS011;23741;49.446;8.754;2023-07-28T01:43:46;3.17;;;1.83;;
37909;SDS011;23741;49.446;8.754;2023-07-28T01:45:48;1.98;;;1.70;;
37909;SDS011;23741;49.446;8.754;2023-07-28T01:47:50;3.33;;;1.73;;
37909;SDS011;23741;49.446;8.754;2023-07-28T01:49:52;2.43;;;1.60;;
37909;SDS011;23741;49.446;8.754;2023-07-28T01:51:53;3.20;;;1.33;;
37909;SDS011;23741;49.446;8.754;2023-07-28T01:53:55;2.00;;;1.73;;
37909;SDS011;23741;49.446;8.754;2023-07-28T01:55:57;3.55;;;1.80;;
37909;SDS011;23741;49.446;8.754;2023-07-28T01:58:00;2.13;;;1.67;;
37909;SDS011;23741;49.446;8.754;2023-07-28T02:00:03;1.70;;;1.50;;
37909;SDS011;23741;49.446;8.754;2023-07-28T02:02:13;2.38;;;1.70;;
37909;SDS011;23741;49.446;8.754;2023-07-28T02:04:15;2.70;;;1.70;;
37909;SDS011;23741;49.446;8.754;2023-07-28T02:06:17;2.25;;;1.77;;
37909;SDS011;23741;49.446;8.754;2023-07-28T02:08:19;2.37;;;1.73;;
37909;SDS011;23741;49.446;8.754;2023-07-28T02:10:22;3.47;;;2.10;;
37909;SDS011;23741;49.446;8.754;2023-07-28T02:12:24;2.88;;;1.73;;
37909;SDS011;23741;49.446;8.754;2023-07-28T02:14:26;5.78;;;1.63;;
37909;SDS011;23741;49.446;8.754;2023-07-28T02:16:28;2.45;;;1.98;;
37909;SDS011;23741;49.446;8.754;2023-07-28T02:18:32;1.42;;;1.33;;
37909;SDS011;23741;49.446;8.754;2023-07-28T02:20:33;4.30;;;2.45;;
37909;SDS011;23741;49.446;8.754;2023-07-28T02:22:37;3.22;;;2.00;;
37909;SDS011;23741;49.446;8.754;2023-07-28T02:24:39;2.10;;;1.90;;
37909;SDS011;23741;49.446;8.754;2023-07-28T02:26:40;4.63;;;1.40;;
37909;SDS011;23741;49.446;8.754;2023-07-28T02:28:42;2.47;;;1.73;;
37909;SDS011;23741;49.446;8.754;2023-07-28T02:30:44;1.58;;;1.40;;
37909;SDS011;23741;49.446;8.754;2023-07-28T02:32:46;1.92;;;1.65;;
37909;SDS011;23741;49.446;8.754;2023-07-28T02:34:48;1.65;;;1.50;;
37909;SDS011;23741;49.446;8.754;2023-07-28T02:36:50;3.22;;;1.75;;
37909;SDS011;23741;49.446;8.754;2023-07-28T02:38:52;5.20;;;1.75;;
37909;SDS011;23741;49.446;8.754;2023-07-28T02:40:54;3.33;;;1.80;;
37909;SDS011;23741;49.446;8.754;2023-07-28T02:42:56;2.90;;;1.67;;
37909;SDS011;23741;49.446;8.754;2023-07-28T02:44:58;1.98;;;1.40;;
37909;SDS011;23741;49.446;8.754;2023-07-28T02:47:00;1.63;;;1.52;;
37909;SDS011;23741;49.446;8.754;2023-07-28T02:49:02;1.65;;;1.50;;
37909;SDS011;23741;49.446;8.754;2023-07-28T02:51:05;4.75;;;1.90;;
37909;SDS011;23741;49.446;8.754;2023-07-28T02:53:07;3.92;;;1.52;;
37909;SDS011;23741;49.446;8.754;2023-07-28T02:55:08;3.58;;;1.60;;
37909;SDS011;23741;49.446;8.754;2023-07-28T02:57:10;2.37;;;1.53;;
37909;SDS011;23741;49.446;8.754;2023-07-28T02:59:16;2.58;;;1.58;;
37909;SDS011;23741;49.446;8.754;2023-07-28T03:01:18;1.55;;;1.33;;
37909;SDS011;23741;49.446;8.754;2023-07-28T03:03:21;1.70;;;1.50;;
37909;SDS011;23741;49.446;8.754;2023-07-28T03:05:23;1.52;;;1.38;;
37909;SDS011;23741;49.446;8.754;2023-07-28T03:07:49;3.33;;;1.60;;
37909;SDS011;23741;49.446;8.754;2023-07-28T03:09:51;1.60;;;1.50;;
37909;SDS011;23741;49.446;8.754;2023-07-28T03:11:54;5.15;;;1.83;;
37909;SDS011;23741;49.446;8.754;2023-07-28T03:15:58;2.20;;;1.60;;
37909;SDS011;23741;49.446;8.754;2023-07-28T03:18:00;1.77;;;1.50;;
37909;SDS011;23741;49.446;8.754;2023-07-28T03:20:02;1.63;;;1.47;;
37909;SDS011;23741;49.446;8.754;2023-07-28T03:22:04;2.00;;;1.63;;
37909;SDS011;23741;49.446;8.754;2023-07-28T03:24:05;1.30;;;1.20;;
37909;SDS011;23741;49.446;8.754;2023-07-28T03:26:07;2.92;;;1.70;;
37909;SDS011;23741;49.446;8.754;2023-07-28T03:28:09;1.77;;;1.60;;
37909;SDS011;23741;49.446;8.754;2023-07-28T03:30:11;1.75;;;1.60;;
37909;SDS011;23741;49.446;8.754;2023-07-28T03:34:16;1.55;;;1.45;;
37909;SDS011;23741;49.446;8.754;2023-07-28T03:36:18;1.65;;;1.35;;
37909;SDS011;23741;49.446;8.754;2023-07-28T03:40:22;2.05;;;1.52;;
37909;SDS011;23741;49.446;8.754;2023-07-28T03:42:26;2.40;;;1.50;;
37909;SDS011;23741;49.446;8.754;2023-07-28T03:44:28;3.83;;;1.50;;
37909;SDS011;23741;49.446;8.754;2023-07-28T03:46:30;2.30;;;1.48;;
37909;SDS011;23741;49.446;8.754;2023-07-28T03:48:32;1.40;;;1.30;;
37909;SDS011;23741;49.446;8.754;2023-07-28T03:50:34;2.83;;;1.67;;
37909;SDS011;23741;49.446;8.754;2023-07-28T03:52:36;3.03;;;1.50;;
37909;SDS011;23741;49.446;8.754;2023-07-28T03:54:37;1.58;;;1.48;;
37909;SDS011;23741;49.446;8.754;2023-07-28T03:56:39;1.95;;;1.60;;
37909;SDS011;23741;49.446;8.754;2023-07-28T03:58:41;5.43;;;2.00;;
37909;SDS011;23741;49.446;8.754;2023-07-28T04:00:43;1.97;;;1.33;;
37909;SDS011;23741;49.446;8.754;2023-07-28T04:02:45;1.65;;;1.55;;
37909;SDS011;23741;49.446;8.754;2023-07-28T04:04:52;1.73;;;1.63;;
37909;SDS011;23741;49.446;8.754;2023-07-28T04:06:56;1.98;;;1.70;;
37909;SDS011;23741;49.446;8.754;2023-07-28T04:08:58;1.58;;;1.48;;
37909;SDS011;23741;49.446;8.754;2023-07-28T04:10:59;1.67;;;1.58;;
37909;SDS011;23741;49.446;8.754;2023-07-28T04:13:01;3.65;;;1.42;;
37909;SDS011;23741;49.446;8.754;2023-07-28T04:15:03;2.28;;;1.85;;
37909;SDS011;23741;49.446;8.754;2023-07-28T04:17:05;2.83;;;1.60;;
37909;SDS011;23741;49.446;8.754;2023-07-28T04:19:08;1.85;;;1.73;;
37909;SDS011;23741;49.446;8.754;2023-07-28T04:21:10;2.23;;;1.87;;
37909;SDS011;23741;49.446;8.754;2023-07-28T04:23:11;1.83;;;1.50;;
37909;SDS011;23741;49.446;8.754;2023-07-28T04:25:14;1.98;;;1.50;;
37909;SDS011;23741;49.446;8.754;2023-07-28T04:27:20;2.20;;;1.52;;
37909;SDS011;23741;49.446;8.754;2023-07-28T04:29:23;2.08;;;1.70;;
37909;SDS011;23741;49.446;8.754;2023-07-28T04:31:25;1.70;;;1.35;;
37909;SDS011;23741;49.446;8.754;2023-07-28T04:33:31;1.50;;;1.40;;
37909;SDS011;23741;49.446;8.754;2023-07-28T04:35:33;1.45;;;1.35;;
37909;SDS011;23741;49.446;8.754;2023-07-28T04:37:47;2.22;;;1.30;;
37909;SDS011;23741;49.446;8.754;2023-07-28T04:39:57;1.98;;;1.40;;
37909;SDS011;23741;49.446;8.754;2023-07-28T04:42:04;1.95;;;1.58;;
37909;SDS011;23741;49.446;8.754;2023-07-28T04:44:06;4.03;;;1.30;;
37909;SDS011;23741;49.446;8.754;2023-07-28T04:46:12;1.50;;;1.40;;
37909;SDS011;23741;49.446;8.754;2023-07-28T04:48:15;1.48;;;1.35;;
37909;SDS011;23741;49.446;8.754;2023-07-28T04:50:17;1.52;;;1.40;;
37909;SDS011;23741;49.446;8.754;2023-07-28T04:52:58;1.60;;;1.42;;
37909;SDS011;23741;49.446;8.754;2023-07-28T04:55:02;1.67;;;1.48;;
37909;SDS011;23741;49.446;8.754;2023-07-28T04:57:07;2.03;;;1.30;;
37909;SDS011;23741;49.446;8.754;2023-07-28T04:59:12;2.33;;;1.40;;
37909;SDS011;23741;49.446;8.754;2023-07-28T05:01:13;1.45;;;1.30;;
37909;SDS011;23741;49.446;8.754;2023-07-28T05:03:19;1.60;;;1.20;;
37909;SDS011;23741;49.446;8.754;2023-07-28T05:05:28;1.25;;;1.10;;
37909;SDS011;23741;49.446;8.754;2023-07-28T05:07:31;1.45;;;1.23;;
37909;SDS011;23741;49.446;8.754;2023-07-28T05:09:33;1.73;;;1.25;;
37909;SDS011;23741;49.446;8.754;2023-07-28T05:11:34;1.30;;;1.20;;
37909;SDS011;23741;49.446;8.754;2023-07-28T05:13:37;2.33;;;1.35;;
37909;SDS011;23741;49.446;8.754;2023-07-28T05:15:39;1.95;;;1.25;;
37909;SDS011;23741;49.446;8.754;2023-07-28T05:17:45;1.25;;;1.00;;
37909;SDS011;23741;49.446;8.754;2023-07-28T05:20:05;1.95;;;1.02;;
37909;SDS011;23741;49.446;8.754;2023-07-28T05:22:14;0.90;;;0.90;;
37909;SDS011;23741;49.446;8.754;2023-07-28T05:24:22;1.67;;;1.40;;
37909;SDS011;23741;49.446;8.754;2023-07-28T05:26:24;2.17;;;1.25;;
37909;SDS011;23741;49.446;8.754;2023-07-28T05:28:26;2.57;;;1.87;;
37909;SDS011;23741;49.446;8.754;2023-07-28T05:30:30;5.90;;;1.50;;
37909;SDS011;23741;49.446;8.754;2023-07-28T05:32:32;1.65;;;1.38;;
37909;SDS011;23741;49.446;8.754;2023-07-28T05:35:00;2.90;;;1.27;;
37909;SDS011;23741;49.446;8.754;2023-07-28T05:37:02;1.23;;;1.13;;
37909;SDS011;23741;49.446;8.754;2023-07-28T05:39:06;1.55;;;1.13;;
37909;SDS011;23741;49.446;8.754;2023-07-28T05:41:14;1.73;;;1.05;;
37909;SDS011;23741;49.446;8.754;2023-07-28T05:43:18;1.00;;;0.90;;
37909;SDS011;23741;49.446;8.754;2023-07-28T05:47:23;1.60;;;0.98;;
37909;SDS011;23741;49.446;8.754;2023-07-28T05:49:24;1.40;;;1.30;;
37909;SDS011;23741;49.446;8.754;2023-07-28T05:51:26;1.75;;;0.98;;
37909;SDS011;23741;49.446;8.754;2023-07-28T05:53:28;1.27;;;1.00;;
37909;SDS011;23741;49.446;8.754;2023-07-28T05:55:36;1.63;;;1.10;;
37909;SDS011;23741;49.446;8.754;2023-07-28T05:57:37;0.80;;;0.80;;
37909;SDS011;23741;49.446;8.754;2023-07-28T05:59:42;3.08;;;0.90;;
37909;SDS011;23741;49.446;8.754;2023-07-28T06:01:44;1.35;;;1.15;;
37909;SDS011;23741;49.446;8.754;2023-07-28T06:03:55;0.85;;;0.77;;
37909;SDS011;23741;49.446;8.754;2023-07-28T06:06:02;1.20;;;1.10;;
37909;SDS011;23741;49.446;8.754;2023-07-28T06:08:04;1.10;;;0.70;;
37909;SDS011;23741;49.446;8.754;2023-07-28T06:10:06;1.13;;;1.02;;
37909;SDS011;23741;49.446;8.754;2023-07-28T06:12:08;3.15;;;1.10;;
37909;SDS011;23741;49.446;8.754;2023-07-28T06:14:10;1.00;;;0.80;;
37909;SDS011;23741;49.446;8.754;2023-07-28T06:16:13;1.30;;;1.07;;
37909;SDS011;23741;49.446;8.754;2023-07-28T06:20:22;1.85;;;0.90;;
37909;SDS011;23741;49.446;8.754;2023-07-28T06:22:24;0.80;;;0.80;;
37909;SDS011;23741;49.446;8.754;2023-07-28T06:24:25;1.73;;;1.00;;
37909;SDS011;23741;49.446;8.754;2023-07-28T06:26:27;1.08;;;0.98;;
37909;SDS011;23741;49.446;8.754;2023-07-28T06:28:29;1.10;;;1.00;;
37909;SDS011;23741;49.446;8.754;2023-07-28T06:30:31;0.73;;;0.73;;
37909;SDS011;23741;49.446;8.754;2023-07-28T06:32:33;0.88;;;0.85;;
37909;SDS011;23741;49.446;8.754;2023-07-28T06:34:35;3.10;;;1.07;;
37909;SDS011;23741;49.446;8.754;2023-07-28T06:36:37;1.20;;;1.10;;
37909;SDS011;23741;49.446;8.754;2023-07-28T06:38:39;1.02;;;0.93;;
37909;SDS011;23741;49.446;8.754;2023-07-28T06:40:41;1.27;;;0.95;;
37909;SDS011;23741;49.446;8.754;2023-07-28T06:42:43;1.52;;;1.10;;
37909;SDS011;23741;49.446;8.754;2023-07-28T06:44:45;1.50;;;1.40;;
37909;SDS011;23741;49.446;8.754;2023-07-28T06:46:47;1.50;;;1.23;;
37909;SDS011;23741;49.446;8.754;2023-07-28T06:48:49;1.50;;;1.40;;
37909;SDS011;23741;49.446;8.754;2023-07-28T06:50:51;1.50;;;1.40;;
37909;SDS011;23741;49.446;8.754;2023-07-28T06:52:55;2.47;;;1.48;;
37909;SDS011;23741;49.446;8.754;2023-07-28T06:54:59;1.15;;;1.00;;
37909;SDS011;23741;49.446;8.754;2023-07-28T06:57:01;1.25;;;0.90;;
37909;SDS011;23741;49.446;8.754;2023-07-28T06:59:03;0.98;;;0.98;;
37909;SDS011;23741;49.446;8.754;2023-07-28T07:01:17;1.27;;;1.17;;
37909;SDS011;23741;49.446;8.754;2023-07-28T07:03:19;1.57;;;0.90;;
37909;SDS011;23741;49.446;8.754;2023-07-28T07:05:21;1.07;;;0.97;;
37909;SDS011;23741;49.446;8.754;2023-07-28T07:07:25;1.48;;;1.00;;
37909;SDS011;23741;49.446;8.754;2023-07-28T07:09:31;1.15;;;1.05;;
37909;SDS011;23741;49.446;8.754;2023-07-28T07:11:33;1.33;;;1.20;;
37909;SDS011;23741;49.446;8.754;2023-07-28T07:13:35;1.27;;;1.17;;
37909;SDS011;23741;49.446;8.754;2023-07-28T07:15:37;1.20;;;1.10;;
37909;SDS011;23741;49.446;8.754;2023-07-28T07:17:39;1.75;;;1.30;;
37909;SDS011;23741;49.446;8.754;2023-07-28T07:19:41;2.47;;;1.02;;
37909;SDS011;23741;49.446;8.754;2023-07-28T07:21:43;1.47;;;1.00;;
37909;SDS011;23741;49.446;8.754;2023-07-28T07:23:46;1.30;;;1.20;;
37909;SDS011;23741;49.446;8.754;2023-07-28T07:26:00;1.40;;;1.00;;
37909;SDS011;23741;49.446;8.754;2023-07-28T07:28:02;2.13;;;1.23;;
37909;SDS011;23741;49.446;8.754;2023-07-28T07:30:04;1.58;;;1.23;;
37909;SDS011;23741;49.446;8.754;2023-07-28T07:32:07;0.93;;;0.90;;
37909;SDS011;23741;49.446;8.754;2023-07-28T07:34:11;1.75;;;1.65;;
37909;SDS011;23741;49.446;8.754;2023-07-28T07:36:16;1.37;;;1.27;;
37909;SDS011;23741;49.446;8.754;2023-07-28T07:38:19;1.25;;;1.15;;
37909;SDS011;23741;49.446;8.754;2023-07-28T07:40:21;1.70;;;1.60;;
37909;SDS011;23741;49.446;8.754;2023-07-28T07:42:28;1.88;;;1.70;;
37909;SDS011;23741;49.446;8.754;2023-07-28T07:44:30;1.42;;;1.33;;
37909;SDS011;23741;49.446;8.754;2023-07-28T07:46:31;1.55;;;1.45;;
37909;SDS011;23741;49.446;8.754;2023-07-28T07:48:34;1.35;;;1.25;;
37909;SDS011;23741;49.446;8.754;2023-07-28T07:50:35;1.50;;;1.40;;
37909;SDS011;23741;49.446;8.754;2023-07-28T07:52:37;1.50;;;1.40;;
37909;SDS011;23741;49.446;8.754;2023-07-28T07:54:42;1.42;;;1.33;;
37909;SDS011;23741;49.446;8.754;2023-07-28T07:56:44;1.77;;;1.67;;
37909;SDS011;23741;49.446;8.754;2023-07-28T07:58:48;1.65;;;1.55;;
37909;SDS011;23741;49.446;8.754;2023-07-28T08:00:50;2.33;;;2.13;;
37909;SDS011;23741;49.446;8.754;2023-07-28T08:02:52;2.60;;;2.40;;
37909;SDS011;23741;49.446;8.754;2023-07-28T08:04:54;1.95;;;1.85;;
37909;SDS011;23741;49.446;8.754;2023-07-28T08:08:58;2.63;;;2.15;;
37909;SDS011;23741;49.446;8.754;2023-07-28T08:11:00;2.78;;;2.45;;
37909;SDS011;23741;49.446;8.754;2023-07-28T08:13:03;2.33;;;2.13;;
37909;SDS011;23741;49.446;8.754;2023-07-28T08:15:05;3.70;;;2.20;;
37909;SDS011;23741;49.446;8.754;2023-07-28T08:17:08;2.88;;;2.63;;
37909;SDS011;23741;49.446;8.754;2023-07-28T08:19:10;2.90;;;2.50;;
37909;SDS011;23741;49.446;8.754;2023-07-28T08:21:12;2.57;;;2.30;;
37909;SDS011;23741;49.446;8.754;2023-07-28T08:23:14;3.10;;;2.80;;
37909;SDS011;23741;49.446;8.754;2023-07-28T08:25:16;2.70;;;2.50;;
37909;SDS011;23741;49.446;8.754;2023-07-28T08:27:18;2.45;;;2.25;;
37909;SDS011;23741;49.446;8.754;2023-07-28T08:29:20;2.55;;;2.13;;
37909;SDS011;23741;49.446;8.754;2023-07-28T08:31:22;2.70;;;2.25;;
37909;SDS011;23741;49.446;8.754;2023-07-28T08:33:24;2.38;;;2.17;;
37909;SDS011;23741;49.446;8.754;2023-07-28T08:35:26;2.33;;;2.13;;
37909;SDS011;23741;49.446;8.754;2023-07-28T08:37:29;2.33;;;2.13;;
37909;SDS011;23741;49.446;8.754;2023-07-28T08:39:30;2.23;;;2.03;;
37909;SDS011;23741;49.446;8.754;2023-07-28T08:43:35;2.30;;;1.80;;
37909;SDS011;23741;49.446;8.754;2023-07-28T08:45:41;2.00;;;1.90;;
37909;SDS011;23741;49.446;8.754;2023-07-28T08:47:43;2.20;;;2.00;;
37909;SDS011;23741;49.446;8.754;2023-07-28T08:49:45;2.05;;;1.80;;
37909;SDS011;23741;49.446;8.754;2023-07-28T08:51:51;1.70;;;1.60;;
37909;SDS011;23741;49.446;8.754;2023-07-28T08:55:55;3.25;;;1.55;;
37909;SDS011;23741;49.446;8.754;2023-07-28T08:58:13;1.80;;;1.70;;
37909;SDS011;23741;49.446;8.754;2023-07-28T09:00:16;1.55;;;1.45;;
37909;SDS011;23741;49.446;8.754;2023-07-28T09:02:19;1.77;;;1.45;;
37909;SDS011;23741;49.446;8.754;2023-07-28T09:04:22;2.00;;;1.85;;
37909;SDS011;23741;49.446;8.754;2023-07-28T09:06:29;2.35;;;1.90;;
37909;SDS011;23741;49.446;8.754;2023-07-28T09:08:32;1.70;;;1.60;;
37909;SDS011;23741;49.446;8.754;2023-07-28T09:10:41;2.75;;;1.83;;
37909;SDS011;23741;49.446;8.754;2023-07-28T09:12:48;2.00;;;1.67;;
37909;SDS011;23741;49.446;8.754;2023-07-28T09:14:55;2.53;;;1.88;;
37909;SDS011;23741;49.446;8.754;2023-07-28T09:19:09;1.60;;;1.50;;
37909;SDS011;23741;49.446;8.754;2023-07-28T09:23:28;1.75;;;1.58;;
37909;SDS011;23741;49.446;8.754;2023-07-28T09:25:31;2.50;;;1.65;;
37909;SDS011;23741;49.446;8.754;2023-07-28T09:27:34;1.70;;;1.60;;
37909;SDS011;23741;49.446;8.754;2023-07-28T09:29:36;3.63;;;1.63;;
37909;SDS011;23741;49.446;8.754;2023-07-28T09:31:38;2.43;;;1.60;;
37909;SDS011;23741;49.446;8.754;2023-07-28T09:33:40;1.57;;;1.43;;
37909;SDS011;23741;49.446;8.754;2023-07-28T09:35:48;1.52;;;1.27;;
37909;SDS011;23741;49.446;8.754;2023-07-28T09:37:51;1.77;;;1.67;;
37909;SDS011;23741;49.446;8.754;2023-07-28T09:39:56;1.63;;;1.52;;
37909;SDS011;23741;49.446;8.754;2023-07-28T09:44:01;1.60;;;1.50;;
37909;SDS011;23741;49.446;8.754;2023-07-28T09:46:03;6.53;;;1.50;;
37909;SDS011;23741;49.446;8.754;2023-07-28T09:48:08;2.10;;;1.50;;
37909;SDS011;23741;49.446;8.754;2023-07-28T09:50:14;1.95;;;1.65;;
37909;SDS011;23741;49.446;8.754;2023-07-28T09:52:17;1.75;;;1.63;;
37909;SDS011;23741;49.446;8.754;2023-07-28T09:54:23;1.40;;;1.30;;
37909;SDS011;23741;49.446;8.754;2023-07-28T09:56:28;2.25;;;1.60;;
37909;SDS011;23741;49.446;8.754;2023-07-28T09:58:31;1.50;;;1.40;;
37909;SDS011;23741;49.446;8.754;2023-07-28T10:00:39;1.70;;;1.58;;
37909;SDS011;23741;49.446;8.754;2023-07-28T10:02:42;2.92;;;1.67;;
37909;SDS011;23741;49.446;8.754;2023-07-28T10:04:45;1.50;;;1.40;;
37909;SDS011;23741;49.446;8.754;2023-07-28T10:06:48;1.52;;;1.42;;
37909;SDS011;23741;49.446;8.754;2023-07-28T10:10:52;2.80;;;1.30;;
37909;SDS011;23741;49.446;8.754;2023-07-28T10:12:57;1.40;;;1.30;;
37909;SDS011;23741;49.446;8.754;2023-07-28T10:15:00;1.67;;;1.50;;
37909;SDS011;23741;49.446;8.754;2023-07-28T10:17:03;1.40;;;1.30;;
37909;SDS011;23741;49.446;8.754;2023-07-28T10:19:07;1.30;;;1.20;;
37909;SDS011;23741;49.446;8.754;2023-07-28T10:21:10;1.40;;;1.30;;
37909;SDS011;23741;49.446;8.754;2023-07-28T10:23:21;1.52;;;1.42;;
37909;SDS011;23741;49.446;8.754;2023-07-28T10:25:24;1.25;;;1.15;;
37909;SDS011;23741;49.446;8.754;2023-07-28T10:27:36;1.30;;;1.20;;
37909;SDS011;23741;49.446;8.754;2023-07-28T10:29:43;1.80;;;1.38;;
37909;SDS011;23741;49.446;8.754;2023-07-28T10:31:58;1.30;;;1.20;;
37909;SDS011;23741;49.446;8.754;2023-07-28T10:34:00;2.63;;;1.30;;
37909;SDS011;23741;49.446;8.754;2023-07-28T10:36:12;1.40;;;1.30;;
37909;SDS011;23741;49.446;8.754;2023-07-28T10:38:35;1.37;;;1.27;;
37909;SDS011;23741;49.446;8.754;2023-07-28T10:40:38;1.17;;;1.08;;
37909;SDS011;23741;49.446;8.754;2023-07-28T10:42:40;1.05;;;0.95;;
37909;SDS011;23741;49.446;8.754;2023-07-28T10:44:42;1.30;;;1.20;;
37909;SDS011;23741;49.446;8.754;2023-07-28T10:46:44;5.23;;;1.73;;
37909;SDS011;23741;49.446;8.754;2023-07-28T10:48:46;2.10;;;2.00;;
37909;SDS011;23741;49.446;8.754;2023-07-28T10:50:49;1.45;;;1.35;;
37909;SDS011;23741;49.446;8.754;2023-07-28T10:52:51;2.03;;;1.25;;
37909;SDS011;23741;49.446;8.754;2023-07-28T10:54:53;1.50;;;1.40;;
37909;SDS011;23741;49.446;8.754;2023-07-28T10:56:55;1.92;;;1.38;;
37909;SDS011;23741;49.446;8.754;2023-07-28T10:58:58;6.43;;;1.20;;
37909;SDS011;23741;49.446;8.754;2023-07-28T11:01:01;1.63;;;1.40;;
37909;SDS011;23741;49.446;8.754;2023-07-28T11:03:03;2.10;;;1.52;;
37909;SDS011;23741;49.446;8.754;2023-07-28T11:05:06;1.80;;;1.70;;
37909;SDS011;23741;49.446;8.754;2023-07-28T11:07:11;2.20;;;2.00;;
37909;SDS011;23741;49.446;8.754;2023-07-28T11:09:13;1.98;;;1.85;;
37909;SDS011;23741;49.446;8.754;2023-07-28T11:11:15;1.50;;;1.40;;
37909;SDS011;23741;49.446;8.754;2023-07-28T11:13:17;1.60;;;1.50;;
37909;SDS011;23741;49.446;8.754;2023-07-28T11:15:39;2.20;;;1.70;;
37909;SDS011;23741;49.446;8.754;2023-07-28T11:17:43;1.90;;;1.70;;
37909;SDS011;23741;49.446;8.754;2023-07-28T11:19:47;1.92;;;1.65;;
37909;SDS011;23741;49.446;8.754;2023-07-28T11:21:49;2.03;;;1.65;;
37909;SDS011;23741;49.446;8.754;2023-07-28T11:23:53;2.00;;;1.80;;
37909;SDS011;23741;49.446;8.754;2023-07-28T11:25:55;1.75;;;1.65;;
37909;SDS011;23741;49.446;8.754;2023-07-28T11:27:57;2.08;;;1.60;;
37909;SDS011;23741;49.446;8.754;2023-07-28T11:29:59;2.42;;;1.50;;
37909;SDS011;23741;49.446;8.754;2023-07-28T11:32:04;2.60;;;1.80;;
37909;SDS011;23741;49.446;8.754;2023-07-28T11:34:13;2.00;;;1.67;;
37909;SDS011;23741;49.446;8.754;2023-07-28T11:36:23;3.53;;;1.60;;
37909;SDS011;23741;49.446;8.754;2023-07-28T11:38:25;1.60;;;1.50;;
37909;SDS011;23741;49.446;8.754;2023-07-28T11:40:28;1.65;;;1.55;;
37909;SDS011;23741;49.446;8.754;2023-07-28T11:42:30;2.35;;;2.08;;
37909;SDS011;23741;49.446;8.754;2023-07-28T11:44:32;2.00;;;1.60;;
37909;SDS011;23741;49.446;8.754;2023-07-28T11:46:35;1.77;;;1.65;;
37909;SDS011;23741;49.446;8.754;2023-07-28T11:48:38;1.92;;;1.52;;
37909;SDS011;23741;49.446;8.754;2023-07-28T11:50:40;1.52;;;1.42;;
37909;SDS011;23741;49.446;8.754;2023-07-28T11:52:43;2.60;;;1.77;;
37909;SDS011;23741;49.446;8.754;2023-07-28T11:54:47;1.60;;;1.50;;
37909;SDS011;23741;49.446;8.754;2023-07-28T11:56:49;2.03;;;1.83;;
37909;SDS011;23741;49.446;8.754;2023-07-28T11:58:52;1.50;;;1.38;;
37909;SDS011;23741;49.446;8.754;2023-07-28T12:00:54;3.80;;;1.80;;
37909;SDS011;23741;49.446;8.754;2023-07-28T12:03:11;1.67;;;1.58;;
37909;SDS011;23741;49.446;8.754;2023-07-28T12:05:15;1.52;;;1.42;;
37909;SDS011;23741;49.446;8.754;2023-07-28T12:07:29;1.73;;;1.63;;
37909;SDS011;23741;49.446;8.754;2023-07-28T12:11:50;1.70;;;1.50;;
37909;SDS011;23741;49.446;8.754;2023-07-28T12:13:55;1.88;;;1.65;;
37909;SDS011;23741;49.446;8.754;2023-07-28T12:16:00;1.70;;;1.60;;
37909;SDS011;23741;49.446;8.754;2023-07-28T12:18:06;1.70;;;1.60;;
37909;SDS011;23741;49.446;8.754;2023-07-28T12:20:18;1.83;;;1.55;;
37909;SDS011;23741;49.446;8.754;2023-07-28T12:24:23;1.42;;;1.33;;
37909;SDS011;23741;49.446;8.754;2023-07-28T12:28:27;1.98;;;1.50;;
37909;SDS011;23741;49.446;8.754;2023-07-28T12:32:32;1.30;;;1.20;;
37909;SDS011;23741;49.446;8.754;2023-07-28T12:34:39;5.43;;;1.83;;
37909;SDS011;23741;49.446;8.754;2023-07-28T12:36:44;2.28;;;1.63;;
37909;SDS011;23741;49.446;8.754;2023-07-28T12:38:50;2.03;;;1.80;;
37909;SDS011;23741;49.446;8.754;2023-07-28T12:40:55;1.30;;;1.20;;
37909;SDS011;23741;49.446;8.754;2023-07-28T12:43:00;1.42;;;1.27;;
37909;SDS011;23741;49.446;8.754;2023-07-28T12:45:07;1.45;;;1.35;;
37909;SDS011;23741;49.446;8.754;2023-07-28T12:47:12;1.50;;;1.40;;
37909;SDS011;23741;49.446;8.754;2023-07-28T12:49:14;2.05;;;1.50;;
37909;SDS011;23741;49.446;8.754;2023-07-28T12:51:19;1.40;;;1.30;;
37909;SDS011;23741;49.446;8.754;2023-07-28T12:53:23;1.98;;;1.23;;
37909;SDS011;23741;49.446;8.754;2023-07-28T12:55:25;1.38;;;1.20;;
37909;SDS011;23741;49.446;8.754;2023-07-28T12:57:28;2.45;;;1.27;;
37909;SDS011;23741;49.446;8.754;2023-07-28T12:59:30;1.27;;;1.17;;
37909;SDS011;23741;49.446;8.754;2023-07-28T13:01:32;1.50;;;1.23;;
37909;SDS011;23741;49.446;8.754;2023-07-28T13:03:35;1.50;;;1.40;;